sensor_id;sensor_type;location;lat;lon;timestamp;pressure;altitude;pressure_sealevel;temperature;humidity
35704;BME280;21820;51.112;13.762;2023-03-25T00:00:00;98377.56;;;21.66;60.80
35704;BME280;21820;51.112;13.762;2023-03-25T00:02:35;98375.91;;;21.65;61.23
35704;BME280;21820;51.112;13.762;2023-03-25T00:05:03;98367.16;;;21.58;61.08
35704;BME280;21820;51.112;13.762;2023-03-25T00:07:33;98378.72;;;21.64;61.05
35704;BME280;21820;51.112;13.762;2023-03-25T00:09:59;98376.09;;;21.64;60.85
35704;BME280;21820;51.112;13.762;2023-03-25T00:12:28;98373.31;;;21.65;61.21
35704;BME280;21820;51.112;13.762;2023-03-25T00:14:55;98356.03;;;21.56;60.76
35704;BME280;21820;51.112;13.762;2023-03-25T00:17:24;98362.84;;;21.65;61.37
35704;BME280;21820;51.112;13.762;2023-03-25T00:19:54;98369.06;;;21.64;61.10
35704;BME280;21820;51.112;13.762;2023-03-25T00:22:21;98364.84;;;21.63;61.66
35704;BME280;21820;51.112;13.762;2023-03-25T00:24:49;98366.47;;;21.64;61.07
35704;BME280;21820;51.112;13.762;2023-03-25T00:27:16;98362.22;;;21.63;60.90
35704;BME280;21820;51.112;13.762;2023-03-25T00:29:46;98355.34;;;21.62;61.20
35704;BME280;21820;51.112;13.762;2023-03-25T00:32:13;98346.66;;;21.62;61.39
35704;BME280;21820;51.112;13.762;2023-03-25T00:34:40;98345.88;;;21.61;61.02
35704;BME280;21820;51.112;13.762;2023-03-25T00:37:14;98323.34;;;21.52;60.53
35704;BME280;21820;51.112;13.762;2023-03-25T00:39:46;98339.31;;;21.65;60.75
35704;BME280;21820;51.112;13.762;2023-03-25T00:42:16;98337.31;;;21.75;60.90
35704;BME280;21820;51.112;13.762;2023-03-25T00:44:42;98333.41;;;21.71;60.67
35704;BME280;21820;51.112;13.762;2023-03-25T00:47:08;98335.03;;;21.72;60.50
35704;BME280;21820;51.112;13.762;2023-03-25T00:49:36;98338.66;;;21.71;60.74
35704;BME280;21820;51.112;13.762;2023-03-25T00:52:03;98328.06;;;21.65;60.68
35704;BME280;21820;51.112;13.762;2023-03-25T00:54:29;98339.25;;;21.73;60.41
35704;BME280;21820;51.112;13.762;2023-03-25T00:56:58;98337.66;;;21.72;60.63
35704;BME280;21820;51.112;13.762;2023-03-25T00:59:26;98337.66;;;21.72;60.28
35704;BME280;21820;51.112;13.762;2023-03-25T01:01:51;98342.22;;;21.78;61.16
35704;BME280;21820;51.112;13.762;2023-03-25T01:04:23;98340.91;;;21.74;60.30
35704;BME280;21820;51.112;13.762;2023-03-25T01:06:52;98347.28;;;21.72;60.87
35704;BME280;21820;51.112;13.762;2023-03-25T01:09:20;98349.09;;;21.71;60.20
35704;BME280;21820;51.112;13.762;2023-03-25T01:11:47;98343.22;;;21.69;60.77
35704;BME280;21820;51.112;13.762;2023-03-25T01:14:18;98338.97;;;21.68;60.83
35704;BME280;21820;51.112;13.762;2023-03-25T01:16:54;98333.41;;;21.71;60.39
35704;BME280;21820;51.112;13.762;2023-03-25T01:19:24;98332.75;;;21.69;61.01
35704;BME280;21820;51.112;13.762;2023-03-25T01:21:53;98326.53;;;21.70;60.33
35704;BME280;21820;51.112;13.762;2023-03-25T01:24:20;98329.78;;;21.72;60.30
35704;BME280;21820;51.112;13.762;2023-03-25T01:26:46;98332.59;;;21.71;60.94
35704;BME280;21820;51.112;13.762;2023-03-25T01:29:18;98326.53;;;21.70;60.64
35704;BME280;21820;51.112;13.762;2023-03-25T01:31:45;98324.91;;;21.69;60.94
35704;BME280;21820;51.112;13.762;2023-03-25T01:34:11;98324.91;;;21.69;60.46
35704;BME280;21820;51.112;13.762;2023-03-25T01:36:38;98319.69;;;21.69;60.02
35704;BME280;21820;51.112;13.762;2023-03-25T01:39:06;98313.75;;;21.75;61.10
35704;BME280;21820;51.112;13.762;2023-03-25T01:41:37;98296.53;;;21.58;60.97
35704;BME280;21820;51.112;13.762;2023-03-25T01:46:58;98295.31;;;21.69;61.25
35704;BME280;21820;51.112;13.762;2023-03-25T01:49:38;98294.34;;;21.70;61.12
35704;BME280;21820;51.112;13.762;2023-03-25T01:52:20;98296.97;;;21.70;61.13
35704;BME280;21820;51.112;13.762;2023-03-25T01:54:51;98288.63;;;21.66;60.48
35704;BME280;21820;51.112;13.762;2023-03-25T01:57:21;98288.63;;;21.66;60.80
35704;BME280;21820;51.112;13.762;2023-03-25T01:59:52;98274.09;;;21.64;60.54
35704;BME280;21820;51.112;13.762;2023-03-25T02:02:19;98277.34;;;21.66;60.55
35704;BME280;21820;51.112;13.762;2023-03-25T02:07:11;98258.09;;;21.59;60.70
35704;BME280;21820;51.112;13.762;2023-03-25T02:09:41;98274.09;;;21.64;60.32
35704;BME280;21820;51.112;13.762;2023-03-25T02:12:08;98278.19;;;21.66;60.44
35704;BME280;21820;51.112;13.762;2023-03-25T02:14:36;98282.59;;;21.66;60.75
35704;BME280;21820;51.112;13.762;2023-03-25T02:17:25;98289.25;;;21.68;61.32
35704;BME280;21820;51.112;13.762;2023-03-25T02:28:53;98267.53;;;21.68;60.79
35704;BME280;21820;51.112;13.762;2023-03-25T02:40:17;98266.25;;;21.64;60.53
35704;BME280;21820;51.112;13.762;2023-03-25T02:42:49;98276.88;;;21.62;60.71
35704;BME280;21820;51.112;13.762;2023-03-25T02:45:36;98266.06;;;21.65;61.40
35704;BME280;21820;51.112;13.762;2023-03-25T02:48:14;98244.53;;;21.55;60.33
35704;BME280;21820;51.112;13.762;2023-03-25T02:50:50;98257.91;;;21.60;61.19
35704;BME280;21820;51.112;13.762;2023-03-25T02:53:29;98256.78;;;21.63;60.99
35704;BME280;21820;51.112;13.762;2023-03-25T02:56:01;98254.34;;;21.61;60.57
35704;BME280;21820;51.112;13.762;2023-03-25T02:58:29;98261.19;;;21.62;60.76
35704;BME280;21820;51.112;13.762;2023-03-25T03:00:56;98266.41;;;21.62;61.16
35704;BME280;21820;51.112;13.762;2023-03-25T03:03:24;98265.59;;;21.62;60.82
35704;BME280;21820;51.112;13.762;2023-03-25T03:05:55;98267.59;;;21.60;60.55
35704;BME280;21820;51.112;13.762;2023-03-25T03:16:39;98261.19;;;21.62;60.83
35704;BME280;21820;51.112;13.762;2023-03-25T03:21:48;98258.75;;;21.61;61.37
35704;BME280;21820;51.112;13.762;2023-03-25T03:24:38;98263.81;;;21.62;60.88
35704;BME280;21820;51.112;13.762;2023-03-25T03:30:13;98262.34;;;21.60;61.43
35704;BME280;21820;51.112;13.762;2023-03-25T03:35:27;98262.53;;;21.58;60.89
35704;BME280;21820;51.112;13.762;2023-03-25T03:37:59;98260.72;;;21.59;61.20
35704;BME280;21820;51.112;13.762;2023-03-25T03:40:27;98253.03;;;21.57;60.80
35704;BME280;21820;51.112;13.762;2023-03-25T03:43:00;98262.69;;;21.57;61.29
35704;BME280;21820;51.112;13.762;2023-03-25T03:45:44;98260.88;;;21.57;60.82
35704;BME280;21820;51.112;13.762;2023-03-25T03:48:35;98273.63;;;21.60;60.68
35704;BME280;21820;51.112;13.762;2023-03-25T03:51:13;98268.56;;;21.59;60.63
35704;BME280;21820;51.112;13.762;2023-03-25T03:54:01;98273.00;;;21.58;60.80
35704;BME280;21820;51.112;13.762;2023-03-25T03:56:41;98265.16;;;21.58;61.33
35704;BME280;21820;51.112;13.762;2023-03-25T03:59:40;98265.94;;;21.59;61.37
35704;BME280;21820;51.112;13.762;2023-03-25T04:02:11;98251.66;;;21.47;60.67
35704;BME280;21820;51.112;13.762;2023-03-25T04:04:41;98271.34;;;21.57;61.06
35704;BME280;21820;51.112;13.762;2023-03-25T04:09:56;98280.03;;;21.58;61.46
35704;BME280;21820;51.112;13.762;2023-03-25T04:12:36;98282.81;;;21.56;61.41
35704;BME280;21820;51.112;13.762;2023-03-25T04:15:05;98293.13;;;21.50;60.60
35704;BME280;21820;51.112;13.762;2023-03-25T04:17:31;98277.69;;;21.24;60.56
35704;BME280;21820;51.112;13.762;2023-03-25T04:19:58;98284.72;;;21.32;61.53
35704;BME280;21820;51.112;13.762;2023-03-25T04:22:25;98278.69;;;21.23;60.45
35704;BME280;21820;51.112;13.762;2023-03-25T04:24:51;98281.09;;;21.33;60.18
35704;BME280;21820;51.112;13.762;2023-03-25T04:27:19;98264.25;;;21.43;59.09
35704;BME280;21820;51.112;13.762;2023-03-25T04:29:48;98277.63;;;21.79;58.72
35704;BME280;21820;51.112;13.762;2023-03-25T04:32:16;98285.84;;;21.98;57.76
35704;BME280;21820;51.112;13.762;2023-03-25T04:34:45;98281.13;;;22.17;57.38
35704;BME280;21820;51.112;13.762;2023-03-25T04:37:12;98275.63;;;22.34;56.85
35704;BME280;21820;51.112;13.762;2023-03-25T04:39:38;98278.91;;;22.51;56.33
35704;BME280;21820;51.112;13.762;2023-03-25T04:42:04;98273.09;;;22.63;55.88
35704;BME280;21820;51.112;13.762;2023-03-25T04:44:30;98252.13;;;22.63;55.88
35704;BME280;21820;51.112;13.762;2023-03-25T04:47:06;98277.56;;;22.92;55.37
35704;BME280;21820;51.112;13.762;2023-03-25T04:49:32;98279.00;;;23.09;54.34
35704;BME280;21820;51.112;13.762;2023-03-25T04:51:58;98281.19;;;23.20;54.06
35704;BME280;21820;51.112;13.762;2023-03-25T04:54:26;98286.34;;;23.28;54.23
35704;BME280;21820;51.112;13.762;2023-03-25T04:56:52;98297.66;;;23.43;54.02
35704;BME280;21820;51.112;13.762;2023-03-25T04:59:18;98292.56;;;23.56;53.28
35704;BME280;21820;51.112;13.762;2023-03-25T05:01:45;98289.81;;;23.64;53.42
35704;BME280;21820;51.112;13.762;2023-03-25T05:04:12;98294.84;;;23.80;52.84
35704;BME280;21820;51.112;13.762;2023-03-25T05:06:43;98263.72;;;23.77;52.11
35704;BME280;21820;51.112;13.762;2023-03-25T05:09:13;98282.81;;;23.86;52.86
35704;BME280;21820;51.112;13.762;2023-03-25T05:11:42;98291.25;;;23.81;52.81
35704;BME280;21820;51.112;13.762;2023-03-25T05:14:11;98293.34;;;23.71;52.50
35704;BME280;21820;51.112;13.762;2023-03-25T05:16:37;98295.44;;;23.61;53.24
35704;BME280;21820;51.112;13.762;2023-03-25T05:19:04;98288.66;;;23.52;53.34
35704;BME280;21820;51.112;13.762;2023-03-25T05:21:37;98283.81;;;23.35;54.44
35704;BME280;21820;51.112;13.762;2023-03-25T05:24:10;98273.75;;;23.09;54.07
35704;BME280;21820;51.112;13.762;2023-03-25T05:26:39;98286.59;;;23.04;54.63
35704;BME280;21820;51.112;13.762;2023-03-25T05:29:07;98281.34;;;22.89;55.27
35704;BME280;21820;51.112;13.762;2023-03-25T05:31:33;98290.97;;;22.74;55.63
35704;BME280;21820;51.112;13.762;2023-03-25T05:33:59;98284.38;;;22.64;56.19
35704;BME280;21820;51.112;13.762;2023-03-25T05:36:25;98288.56;;;22.50;56.02
35704;BME280;21820;51.112;13.762;2023-03-25T05:38:51;98278.69;;;22.38;56.63
35704;BME280;21820;51.112;13.762;2023-03-25T05:41:19;98277.31;;;22.27;57.26
35704;BME280;21820;51.112;13.762;2023-03-25T05:43:45;98281.97;;;22.17;57.46
35704;BME280;21820;51.112;13.762;2023-03-25T05:46:14;98284.66;;;22.09;57.72
35704;BME280;21820;51.112;13.762;2023-03-25T05:48:41;98295.34;;;22.00;57.67
35704;BME280;21820;51.112;13.762;2023-03-25T05:51:09;98296.38;;;21.90;57.74
35704;BME280;21820;51.112;13.762;2023-03-25T05:53:38;98296.66;;;21.95;57.81
35704;BME280;21820;51.112;13.762;2023-03-25T05:56:04;98299.41;;;22.02;58.17
35704;BME280;21820;51.112;13.762;2023-03-25T05:58:30;98297.19;;;22.14;57.83
35704;BME280;21820;51.112;13.762;2023-03-25T06:00:57;98293.47;;;22.31;57.44
35704;BME280;21820;51.112;13.762;2023-03-25T06:03:23;98294.16;;;22.47;56.67
35704;BME280;21820;51.112;13.762;2023-03-25T06:05:50;98296.59;;;22.71;55.81
35704;BME280;21820;51.112;13.762;2023-03-25T06:08:17;98293.41;;;22.76;56.06
35704;BME280;21820;51.112;13.762;2023-03-25T06:10:51;98304.81;;;22.83;55.88
35704;BME280;21820;51.112;13.762;2023-03-25T06:13:19;98301.94;;;22.78;55.63
35704;BME280;21820;51.112;13.762;2023-03-25T06:15:44;98294.88;;;22.64;55.99
35704;BME280;21820;51.112;13.762;2023-03-25T06:18:10;98312.19;;;22.65;56.02
35704;BME280;21820;51.112;13.762;2023-03-25T06:20:36;98320.31;;;22.55;56.41
35704;BME280;21820;51.112;13.762;2023-03-25T06:23:02;98315.13;;;22.47;56.05
35704;BME280;21820;51.112;13.762;2023-03-25T06:25:28;98312.75;;;22.38;56.70
35704;BME280;21820;51.112;13.762;2023-03-25T06:27:55;98324.06;;;22.30;56.88
35704;BME280;21820;51.112;13.762;2023-03-25T06:30:22;98334.97;;;22.19;57.15
35704;BME280;21820;51.112;13.762;2023-03-25T06:32:48;98332.22;;;22.13;57.64
35704;BME280;21820;51.112;13.762;2023-03-25T06:35:17;98316.59;;;22.05;57.90
35704;BME280;21820;51.112;13.762;2023-03-25T06:37:44;98319.22;;;21.96;58.00
35704;BME280;21820;51.112;13.762;2023-03-25T06:40:11;98315.69;;;21.89;57.77
35704;BME280;21820;51.112;13.762;2023-03-25T06:42:38;98332.34;;;21.88;58.72
35704;BME280;21820;51.112;13.762;2023-03-25T06:45:04;98332.66;;;21.93;58.24
35704;BME280;21820;51.112;13.762;2023-03-25T06:47:30;98337.34;;;22.06;58.07
35704;BME280;21820;51.112;13.762;2023-03-25T06:49:56;98328.38;;;22.23;57.77
35704;BME280;21820;51.112;13.762;2023-03-25T06:52:22;98318.13;;;22.36;56.62
35704;BME280;21820;51.112;13.762;2023-03-25T06:54:48;98344.34;;;22.59;56.15
35704;BME280;21820;51.112;13.762;2023-03-25T06:57:14;98339.97;;;22.74;55.62
35704;BME280;21820;51.112;13.762;2023-03-25T06:59:40;98341.22;;;22.78;55.82
35704;BME280;21820;51.112;13.762;2023-03-25T07:02:06;98342.59;;;22.74;55.48
35704;BME280;21820;51.112;13.762;2023-03-25T07:04:34;98334.44;;;22.69;56.11
35704;BME280;21820;51.112;13.762;2023-03-25T07:07:00;98348.88;;;22.65;55.95
35704;BME280;21820;51.112;13.762;2023-03-25T07:09:29;98345.31;;;22.58;56.09
35704;BME280;21820;51.112;13.762;2023-03-25T07:11:54;98335.72;;;22.50;56.52
35704;BME280;21820;51.112;13.762;2023-03-25T07:14:20;98343.47;;;22.44;56.30
35704;BME280;21820;51.112;13.762;2023-03-25T07:16:46;98336.31;;;22.38;56.95
35704;BME280;21820;51.112;13.762;2023-03-25T07:19:15;98335.72;;;22.28;57.42
35704;BME280;21820;51.112;13.762;2023-03-25T07:21:44;98340.59;;;22.31;57.18
35704;BME280;21820;51.112;13.762;2023-03-25T07:24:10;98343.53;;;22.36;57.14
35704;BME280;21820;51.112;13.762;2023-03-25T07:26:35;98347.81;;;22.29;57.34
35704;BME280;21820;51.112;13.762;2023-03-25T07:29:01;98349.97;;;22.25;57.13
35704;BME280;21820;51.112;13.762;2023-03-25T07:31:28;98349.66;;;22.20;57.14
35704;BME280;21820;51.112;13.762;2023-03-25T07:33:54;98344.31;;;22.14;57.29
35704;BME280;21820;51.112;13.762;2023-03-25T07:36:20;98352.22;;;22.06;57.49
35704;BME280;21820;51.112;13.762;2023-03-25T07:38:47;98350.91;;;22.02;57.88
35704;BME280;21820;51.112;13.762;2023-03-25T07:41:13;98350.63;;;21.96;57.88
35704;BME280;21820;51.112;13.762;2023-03-25T07:43:39;98359.16;;;21.90;58.25
35704;BME280;21820;51.112;13.762;2023-03-25T07:46:06;98336.00;;;21.79;58.45
35704;BME280;21820;51.112;13.762;2023-03-25T07:48:31;98362.81;;;21.81;58.06
35704;BME280;21820;51.112;13.762;2023-03-25T07:50:58;98364.63;;;21.81;58.78
35704;BME280;21820;51.112;13.762;2023-03-25T07:53:24;98368.03;;;21.89;58.47
35704;BME280;21820;51.112;13.762;2023-03-25T07:55:50;98366.19;;;21.90;57.98
35704;BME280;21820;51.112;13.762;2023-03-25T07:58:17;98378.50;;;21.89;58.16
35704;BME280;21820;51.112;13.762;2023-03-25T08:00:43;98380.44;;;21.87;58.04
35704;BME280;21820;51.112;13.762;2023-03-25T08:03:10;98386.19;;;21.83;58.91
35704;BME280;21820;51.112;13.762;2023-03-25T08:05:38;98377.88;;;21.79;58.27
35704;BME280;21820;51.112;13.762;2023-03-25T08:08:08;98387.00;;;21.75;58.79
35704;BME280;21820;51.112;13.762;2023-03-25T08:10:33;98375.44;;;21.62;58.45
35704;BME280;21820;51.112;13.762;2023-03-25T08:12:59;98390.97;;;21.71;59.37
35704;BME280;21820;51.112;13.762;2023-03-25T08:15:25;98395.72;;;21.68;59.16
35704;BME280;21820;51.112;13.762;2023-03-25T08:17:51;98402.56;;;21.69;58.82
35704;BME280;21820;51.112;13.762;2023-03-25T08:20:17;98399.94;;;21.77;58.57
35704;BME280;21820;51.112;13.762;2023-03-25T08:22:43;98402.34;;;21.94;58.28
35704;BME280;21820;51.112;13.762;2023-03-25T08:25:09;98397.00;;;22.11;58.34
35704;BME280;21820;51.112;13.762;2023-03-25T08:27:35;98406.53;;;22.34;57.18
35704;BME280;21820;51.112;13.762;2023-03-25T08:30:01;98404.34;;;22.46;56.42
35704;BME280;21820;51.112;13.762;2023-03-25T08:32:26;98414.44;;;22.57;56.26
35704;BME280;21820;51.112;13.762;2023-03-25T08:34:52;98408.84;;;22.60;56.41
35704;BME280;21820;51.112;13.762;2023-03-25T08:37:18;98416.06;;;22.58;56.26
35704;BME280;21820;51.112;13.762;2023-03-25T08:39:44;98411.16;;;22.55;56.48
35704;BME280;21820;51.112;13.762;2023-03-25T08:42:11;98422.66;;;22.46;56.86
35704;BME280;21820;51.112;13.762;2023-03-25T08:44:37;98422.56;;;22.39;56.84
35704;BME280;21820;51.112;13.762;2023-03-25T08:47:03;98427.66;;;22.33;57.09
35704;BME280;21820;51.112;13.762;2023-03-25T08:49:29;98436.38;;;22.25;57.33
35704;BME280;21820;51.112;13.762;2023-03-25T08:51:54;98430.00;;;22.20;57.35
35704;BME280;21820;51.112;13.762;2023-03-25T08:54:22;98440.50;;;22.12;57.81
35704;BME280;21820;51.112;13.762;2023-03-25T08:56:48;98436.31;;;22.03;57.61
35704;BME280;21820;51.112;13.762;2023-03-25T08:59:13;98447.13;;;22.00;57.96
35704;BME280;21820;51.112;13.762;2023-03-25T09:01:42;98454.19;;;21.91;57.91
35704;BME280;21820;51.112;13.762;2023-03-25T09:04:11;98463.53;;;21.85;58.42
35704;BME280;21820;51.112;13.762;2023-03-25T09:06:37;98456.66;;;21.92;57.82
35704;BME280;21820;51.112;13.762;2023-03-25T09:09:03;98460.84;;;22.02;57.05
35704;BME280;21820;51.112;13.762;2023-03-25T09:11:35;98452.94;;;22.18;56.38
35704;BME280;21820;51.112;13.762;2023-03-25T09:14:00;98459.53;;;22.36;55.52
35704;BME280;21820;51.112;13.762;2023-03-25T09:16:32;98457.66;;;22.53;55.24
35704;BME280;21820;51.112;13.762;2023-03-25T09:18:58;98453.66;;;22.65;55.06
35704;BME280;21820;51.112;13.762;2023-03-25T09:21:24;98451.00;;;22.73;54.61
35704;BME280;21820;51.112;13.762;2023-03-25T09:23:49;98455.09;;;22.75;54.49
35704;BME280;21820;51.112;13.762;2023-03-25T09:26:17;98454.63;;;22.72;54.61
35704;BME280;21820;51.112;13.762;2023-03-25T09:28:43;98464.81;;;22.67;54.70
35704;BME280;21820;51.112;13.762;2023-03-25T09:31:09;98460.41;;;22.59;54.70
35704;BME280;21820;51.112;13.762;2023-03-25T09:33:35;98454.78;;;22.40;54.82
35704;BME280;21820;51.112;13.762;2023-03-25T09:36:01;98463.75;;;22.45;54.77
35704;BME280;21820;51.112;13.762;2023-03-25T09:38:28;98466.41;;;22.37;55.79
35704;BME280;21820;51.112;13.762;2023-03-25T09:40:53;98459.75;;;22.27;55.67
35704;BME280;21820;51.112;13.762;2023-03-25T09:43:32;98432.34;;;22.07;55.66
35704;BME280;21820;51.112;13.762;2023-03-25T09:45:59;98452.63;;;22.13;55.86
35704;BME280;21820;51.112;13.762;2023-03-25T09:48:29;98435.63;;;22.09;56.56
35704;BME280;21820;51.112;13.762;2023-03-25T09:50:58;98436.66;;;22.00;56.08
35704;BME280;21820;51.112;13.762;2023-03-25T09:56:03;98451.75;;;21.89;56.67
35704;BME280;21820;51.112;13.762;2023-03-25T10:06:17;98421.69;;;21.77;57.33
35704;BME280;21820;51.112;13.762;2023-03-25T10:08:53;98425.31;;;21.76;57.97
35704;BME280;21820;51.112;13.762;2023-03-25T10:11:38;98421.19;;;21.74;57.38
35704;BME280;21820;51.112;13.762;2023-03-25T10:22:05;98390.50;;;21.60;58.02
35704;BME280;21820;51.112;13.762;2023-03-25T10:29:41;98404.06;;;21.63;57.53
35704;BME280;21820;51.112;13.762;2023-03-25T10:32:12;98404.22;;;21.62;58.14
35704;BME280;21820;51.112;13.762;2023-03-25T10:34:46;98400.47;;;21.64;57.66
35704;BME280;21820;51.112;13.762;2023-03-25T10:37:24;98398.00;;;21.63;58.43
35704;BME280;21820;51.112;13.762;2023-03-25T10:39:53;98392.63;;;21.64;58.92
35704;BME280;21820;51.112;13.762;2023-03-25T10:45:11;98379.88;;;21.61;58.51
35704;BME280;21820;51.112;13.762;2023-03-25T10:47:38;98376.28;;;21.62;59.08
35704;BME280;21820;51.112;13.762;2023-03-25T10:50:05;98381.84;;;21.59;58.69
35704;BME280;21820;51.112;13.762;2023-03-25T10:52:31;98376.63;;;21.59;58.50
35704;BME280;21820;51.112;13.762;2023-03-25T10:54:58;98382.19;;;21.56;58.70
35704;BME280;21820;51.112;13.762;2023-03-25T10:57:25;98382.84;;;21.58;58.49
35704;BME280;21820;51.112;13.762;2023-03-25T11:00:05;98393.91;;;21.60;58.31
35704;BME280;21820;51.112;13.762;2023-03-25T11:02:41;98399.53;;;21.49;59.15
35704;BME280;21820;51.112;13.762;2023-03-25T11:05:07;98393.31;;;21.58;59.28
35704;BME280;21820;51.112;13.762;2023-03-25T11:07:35;98389.03;;;21.57;59.01
35704;BME280;21820;51.112;13.762;2023-03-25T11:10:09;98389.84;;;21.58;58.73
35704;BME280;21820;51.112;13.762;2023-03-25T11:12:36;98383.47;;;21.60;58.57
35704;BME280;21820;51.112;13.762;2023-03-25T11:15:03;98385.09;;;21.61;58.45
35704;BME280;21820;51.112;13.762;2023-03-25T11:17:29;98380.84;;;21.60;58.54
35704;BME280;21820;51.112;13.762;2023-03-25T11:20:03;98379.88;;;21.61;59.28
35704;BME280;21820;51.112;13.762;2023-03-25T11:22:35;98377.25;;;21.61;59.16
35704;BME280;21820;51.112;13.762;2023-03-25T11:25:16;98387.06;;;21.59;58.41
35704;BME280;21820;51.112;13.762;2023-03-25T11:27:53;98392.97;;;21.61;58.55
35704;BME280;21820;51.112;13.762;2023-03-25T11:30:20;98390.34;;;21.61;59.07
35704;BME280;21820;51.112;13.762;2023-03-25T11:32:56;98380.88;;;21.52;59.24
35704;BME280;21820;51.112;13.762;2023-03-25T11:35:27;98392.97;;;21.61;58.82
35704;BME280;21820;51.112;13.762;2023-03-25T11:37:55;98364.72;;;21.49;59.01
35704;BME280;21820;51.112;13.762;2023-03-25T11:40:21;98374.34;;;21.56;58.61
35704;BME280;21820;51.112;13.762;2023-03-25T11:42:53;98385.09;;;21.61;59.07
35704;BME280;21820;51.112;13.762;2023-03-25T11:45:21;98378.06;;;21.62;58.54
35704;BME280;21820;51.112;13.762;2023-03-25T11:47:51;98367.78;;;21.60;58.70
35704;BME280;21820;51.112;13.762;2023-03-25T11:50:22;98376.78;;;21.58;58.73
35704;BME280;21820;51.112;13.762;2023-03-25T11:52:54;98369.75;;;21.58;58.81
35704;BME280;21820;51.112;13.762;2023-03-25T11:55:28;98364.19;;;21.61;58.80
35704;BME280;21820;51.112;13.762;2023-03-25T11:57:55;98355.34;;;21.62;58.85
35704;BME280;21820;51.112;13.762;2023-03-25T12:02:59;98347.19;;;21.57;59.11
35704;BME280;21820;51.112;13.762;2023-03-25T12:05:25;98340.16;;;21.58;58.39
35704;BME280;21820;51.112;13.762;2023-03-25T12:07:52;98333.47;;;21.55;58.81
35704;BME280;21820;51.112;13.762;2023-03-25T12:17:54;98329.06;;;21.56;58.96
35704;BME280;21820;51.112;13.762;2023-03-25T12:22:49;98312.53;;;21.55;59.31
35704;BME280;21820;51.112;13.762;2023-03-25T12:27:57;98308.13;;;21.56;59.26
35704;BME280;21820;51.112;13.762;2023-03-25T12:30:32;98309.75;;;21.57;58.66
35704;BME280;21820;51.112;13.762;2023-03-25T12:35:40;98300.47;;;21.54;58.92
35704;BME280;21820;51.112;13.762;2023-03-25T12:38:27;98281.72;;;21.43;58.74
35704;BME280;21820;51.112;13.762;2023-03-25T12:44:01;98296.22;;;21.53;60.17
35704;BME280;21820;51.112;13.762;2023-03-25T12:52:04;98283.16;;;21.53;60.40
35704;BME280;21820;51.112;13.762;2023-03-25T13:02:48;98313.22;;;21.49;58.93
35704;BME280;21820;51.112;13.762;2023-03-25T13:08:00;98298.19;;;21.51;58.54
35704;BME280;21820;51.112;13.762;2023-03-25T13:10:32;98284.72;;;21.62;58.53
35704;BME280;21820;51.112;13.762;2023-03-25T13:13:00;98275.50;;;21.74;57.96
35704;BME280;21820;51.112;13.762;2023-03-25T13:15:47;98286.97;;;22.04;57.45
35704;BME280;21820;51.112;13.762;2023-03-25T13:20:45;98283.59;;;22.41;56.44
35704;BME280;21820;51.112;13.762;2023-03-25T13:23:16;98277.41;;;22.56;56.20
35704;BME280;21820;51.112;13.762;2023-03-25T13:25:53;98251.06;;;22.50;55.63
35704;BME280;21820;51.112;13.762;2023-03-25T13:28:28;98263.16;;;22.59;55.68
35704;BME280;21820;51.112;13.762;2023-03-25T13:31:03;98254.84;;;22.55;56.09
35704;BME280;21820;51.112;13.762;2023-03-25T13:33:31;98247.81;;;22.48;56.21
35704;BME280;21820;51.112;13.762;2023-03-25T13:36:13;98230.66;;;22.31;56.47
35704;BME280;21820;51.112;13.762;2023-03-25T13:38:42;98242.72;;;22.32;56.29
35704;BME280;21820;51.112;13.762;2023-03-25T13:51:39;98233.56;;;21.90;57.31
35704;BME280;21820;51.112;13.762;2023-03-25T13:57:00;98238.22;;;21.80;58.29
35704;BME280;21820;51.112;13.762;2023-03-25T14:02:14;98230.56;;;21.71;58.44
35704;BME280;21820;51.112;13.762;2023-03-25T14:04:50;98219.94;;;21.72;58.77
35704;BME280;21820;51.112;13.762;2023-03-25T14:07:39;98227.75;;;21.80;57.95
35704;BME280;21820;51.112;13.762;2023-03-25T14:12:36;98228.09;;;22.23;56.87
35704;BME280;21820;51.112;13.762;2023-03-25T14:15:05;98225.59;;;22.44;56.83
35704;BME280;21820;51.112;13.762;2023-03-25T14:17:33;98228.81;;;22.54;56.11
35704;BME280;21820;51.112;13.762;2023-03-25T14:20:01;98225.84;;;22.57;55.93
35704;BME280;21820;51.112;13.762;2023-03-25T14:22:30;98230.91;;;22.58;56.08
35704;BME280;21820;51.112;13.762;2023-03-25T14:24:57;98216.25;;;22.49;56.22
35704;BME280;21820;51.112;13.762;2023-03-25T14:27:26;98224.41;;;22.46;56.54
35704;BME280;21820;51.112;13.762;2023-03-25T14:29:59;98224.69;;;22.37;56.76
35704;BME280;21820;51.112;13.762;2023-03-25T14:32:41;98218.53;;;22.30;56.21
35704;BME280;21820;51.112;13.762;2023-03-25T14:37:53;98219.50;;;22.14;57.15
35704;BME280;21820;51.112;13.762;2023-03-25T14:43:26;98317.06;;;22.00;57.47
35704;BME280;21820;51.112;13.762;2023-03-25T14:53:40;98353.69;;;21.77;57.86
35704;BME280;21820;51.112;13.762;2023-03-25T14:56:07;98351.38;;;21.74;58.18
35704;BME280;21820;51.112;13.762;2023-03-25T14:58:45;98336.31;;;21.84;58.48
35704;BME280;21820;51.112;13.762;2023-03-25T15:01:15;98316.28;;;22.00;57.41
35704;BME280;21820;51.112;13.762;2023-03-25T15:03:43;98280.22;;;22.10;57.19
35704;BME280;21820;51.112;13.762;2023-03-25T15:06:31;98313.19;;;22.41;56.69
35704;BME280;21820;51.112;13.762;2023-03-25T15:08:57;98304.34;;;22.65;55.71
35704;BME280;21820;51.112;13.762;2023-03-25T15:11:31;98291.59;;;22.62;55.30
35704;BME280;21820;51.112;13.762;2023-03-25T15:13:59;98320.28;;;22.78;55.08
35704;BME280;21820;51.112;13.762;2023-03-25T15:21:24;98298.13;;;22.66;55.54
35704;BME280;21820;51.112;13.762;2023-03-25T15:24:06;98309.47;;;22.58;56.16
35704;BME280;21820;51.112;13.762;2023-03-25T15:26:34;98299.69;;;22.52;56.21